Time;durP1;ratioP1;P1;durP2;ratioP2;P2;SDS_P1;SDS_P2;PMS_P1;PMS_P2;Temp;Humidity;BMP_temperature;BMP_pressure;BME280_temperature;BME280_humidity;BME280_pressure;Samples;Min_cycle;Max_cycle;Signal;HPM_P1;HPM_P2
2022/11/04 06:06:15;;;;;;;11.82;5.00;;;;;;;9.64;100.00;100294.97;5039873;28;20084;-75
2022/11/04 06:08:41;;;;;;;10.75;4.95;;;;;;;9.65;100.00;100297.34;5022416;28;20111;-75
2022/11/04 06:11:06;;;;;;;12.38;5.85;;;;;;;9.46;100.00;100294.78;5038721;28;20075;-75
2022/11/04 06:13:32;;;;;;;10.52;5.85;;;;;;;9.48;100.00;100304.38;5078403;22;20054;-75
2022/11/04 06:15:57;;;;;;;10.05;4.82;;;;;;;9.68;100.00;100312.56;5033957;28;20037;-75
2022/11/04 06:18:22;;;;;;;10.90;6.55;;;;;;;9.47;100.00;100319.56;5036337;28;20020;-75
2022/11/04 06:20:47;;;;;;;13.05;8.20;;;;;;;9.37;100.00;100320.25;5039624;28;20041;-75
2022/11/04 06:23:13;;;;;;;18.80;8.63;;;;;;;9.34;100.00;100321.03;5037590;28;20164;-75
2022/11/04 06:25:38;;;;;;;13.95;7.82;;;;;;;9.51;100.00;100325.97;5034790;28;20025;-75
2022/11/04 06:28:03;;;;;;;13.90;8.38;;;;;;;9.52;100.00;100332.38;5032116;28;20103;-75
2022/11/04 06:30:29;;;;;;;14.43;7.88;;;;;;;9.52;100.00;100335.94;5033576;28;20033;-75
2022/11/04 06:32:54;;;;;;;13.77;8.27;;;;;;;9.43;100.00;100329.88;5031208;28;20115;-75
2022/11/04 06:35:20;;;;;;;16.00;8.27;;;;;;;9.70;100.00;100326.97;5036081;28;20380;-75
2022/11/04 06:37:45;;;;;;;16.35;9.25;;;;;;;9.48;100.00;100325.94;5040857;28;20598;-75
2022/11/04 06:40:10;;;;;;;19.25;8.55;;;;;;;9.62;100.00;100333.66;5034964;28;20044;-75
2022/11/04 06:42:36;;;;;;;15.10;7.93;;;;;;;9.63;100.00;100330.47;5036679;28;20078;-75
2022/11/04 06:45:01;;;;;;;14.38;7.53;;;;;;;9.84;100.00;100335.44;5020303;28;20156;-76
2022/11/04 06:47:26;;;;;;;12.57;7.47;;;;;;;9.95;100.00;100333.56;5030882;28;20098;-75
2022/11/04 06:49:52;;;;;;;15.13;8.32;;;;;;;9.97;100.00;100339.56;5035742;28;20387;-75
2022/11/04 06:52:17;;;;;;;13.73;7.72;;;;;;;9.92;100.00;100353.88;5036638;28;20024;-75
2022/11/04 06:54:42;;;;;;;16.83;8.32;;;;;;;10.02;100.00;100348.78;5040733;28;20035;-75
2022/11/04 06:57:10;;;;;;;15.45;8.70;;;;;;;9.98;100.00;100343.97;5039437;28;20033;-75
2022/11/04 06:59:36;;;;;;;15.68;8.10;;;;;;;10.09;100.00;100360.81;5037240;28;20037;-75
2022/11/04 07:02:01;;;;;;;16.83;8.45;;;;;;;9.89;100.00;100354.69;5029150;28;20031;-76
2022/11/04 07:04:27;;;;;;;21.85;9.27;;;;;;;9.86;100.00;100366.63;5035531;28;20029;-76
2022/11/04 07:06:52;;;;;;;18.38;10.07;;;;;;;9.76;100.00;100364.50;5031650;28;20017;-75
2022/11/04 07:09:17;;;;;;;18.98;10.35;;;;;;;9.53;100.00;100368.31;5032015;28;20108;-75
2022/11/04 07:11:44;;;;;;;19.63;10.70;;;;;;;9.77;100.00;100377.31;5004998;28;20040;-75
2022/11/04 07:14:10;;;;;;;18.50;9.50;;;;;;;10.17;100.00;100384.06;5014052;28;20401;-75
2022/11/04 07:16:35;;;;;;;21.40;10.75;;;;;;;10.36;100.00;100397.81;5031464;28;20571;-75
2022/11/04 07:19:01;;;;;;;24.30;12.10;;;;;;;10.30;100.00;100399.38;5028345;28;20037;-75
2022/11/04 07:21:26;;;;;;;20.05;11.98;;;;;;;10.26;100.00;100409.69;5020661;28;20032;-75
2022/11/04 07:23:51;;;;;;;25.05;13.90;;;;;;;10.17;100.00;100409.22;5041538;28;20673;-75
2022/11/04 07:26:17;;;;;;;23.52;12.82;;;;;;;10.21;100.00;100410.06;5018958;28;20029;-74
2022/11/04 07:28:42;;;;;;;26.15;15.18;;;;;;;9.95;100.00;100414.63;5027908;28;20527;-75
2022/11/04 07:31:10;;;;;;;29.88;14.88;;;;;;;10.13;100.00;100422.38;5030168;28;20029;-74
2022/11/04 07:33:36;;;;;;;30.63;16.10;;;;;;;10.19;100.00;100420.84;5032625;28;20060;-74
2022/11/04 07:36:06;;;;;;;30.38;15.05;;;;;;;10.13;100.00;100427.97;5020487;28;20080;-74
2022/11/04 07:38:32;;;;;;;31.10;17.17;;;;;;;9.82;100.00;100424.47;5032482;28;20055;-74
2022/11/04 07:40:58;;;;;;;34.25;17.80;;;;;;;10.00;100.00;100427.47;5008622;28;20031;-75
2022/11/04 07:43:23;;;;;;;33.47;18.02;;;;;;;9.93;100.00;100431.00;5033029;28;20551;-74
2022/11/04 07:46:11;;;;;;;35.78;17.48;;;;;;;10.04;100.00;100438.69;5037091;28;20488;-75
2022/11/04 07:48:37;;;;;;;32.50;16.20;;;;;;;10.10;100.00;100439.94;5026247;28;20029;-74
2022/11/04 07:51:05;;;;;;;38.38;18.67;;;;;;;10.11;100.00;100436.75;5028602;28;20087;-74
2022/11/04 07:53:34;;;;;;;31.52;16.48;;;;;;;10.17;100.00;100440.00;5032063;28;20021;-75
2022/11/04 07:56:05;;;;;;;34.28;18.33;;;;;;;9.77;100.00;100438.81;5016076;28;20022;-75
2022/11/04 07:58:31;;;;;;;38.65;19.05;;;;;;;10.06;100.00;100444.69;5042236;28;20033;-75
2022/11/04 08:01:07;;;;;;;38.35;19.23;;;;;;;9.90;100.00;100447.72;5039994;28;20037;-75
2022/11/04 08:03:33;;;;;;;32.78;18.35;;;;;;;10.11;100.00;100442.34;5027191;28;21707;-75
2022/11/04 08:06:01;;;;;;;35.40;19.35;;;;;;;9.98;100.00;100457.78;5045616;28;20479;-77
2022/11/04 08:08:27;;;;;;;36.08;18.48;;;;;;;9.84;100.00;100450.06;5046094;28;20032;-75
2022/11/04 08:11:00;;;;;;;31.45;17.90;;;;;;;10.01;100.00;100453.41;5030740;28;20030;-75
2022/11/04 08:13:30;;;;;;;29.88;17.17;;;;;;;10.06;100.00;100456.69;5037863;28;20625;-75
2022/11/04 08:15:59;;;;;;;33.53;17.08;;;;;;;9.93;100.00;100458.94;5034638;28;20045;-75
2022/11/04 08:18:24;;;;;;;39.75;18.45;;;;;;;10.07;100.00;100457.47;5039145;28;20040;-75
2022/11/04 08:20:51;;;;;;;33.88;17.10;;;;;;;10.31;100.00;100462.53;5044789;28;20049;-75
2022/11/04 08:23:17;;;;;;;35.13;19.45;;;;;;;10.07;100.00;100474.25;5026759;28;20195;-75
2022/11/04 08:25:43;;;;;;;36.70;19.52;;;;;;;10.09;100.00;100481.06;5036598;28;20032;-75
2022/11/04 08:28:15;;;;;;;33.85;18.35;;;;;;;10.13;100.00;100472.72;5034426;28;20035;-75
2022/11/04 08:30:41;;;;;;;31.42;17.30;;;;;;;10.27;100.00;100477.66;5033873;28;20025;-75
2022/11/04 08:33:06;;;;;;;34.63;19.10;;;;;;;10.21;100.00;100482.78;5038420;28;20599;-76
2022/11/04 08:35:34;;;;;;;40.22;20.27;;;;;;;9.70;100.00;100483.47;5043214;28;20032;-75
2022/11/04 08:37:59;;;;;;;41.53;22.60;;;;;;;9.49;100.00;100475.63;5034301;28;20043;-75
2022/11/04 08:40:24;;;;;;;42.13;22.95;;;;;;;9.66;100.00;100491.00;5032868;28;20033;-74
2022/11/04 08:42:50;;;;;;;38.80;21.88;;;;;;;9.60;100.00;100484.13;5033901;28;20060;-74
2022/11/04 08:45:16;;;;;;;47.58;23.00;;;;;;;9.63;100.00;100483.38;5037640;28;20407;-74
2022/11/04 08:47:41;;;;;;;37.13;21.08;;;;;;;10.08;100.00;100481.47;5031924;28;20020;-74
2022/11/04 08:50:06;;;;;;;38.83;22.13;;;;;;;10.21;100.00;100491.19;5030283;28;20032;-75
2022/11/04 08:52:32;;;;;;;37.92;22.45;;;;;;;10.28;100.00;100498.84;5032112;28;20036;-75
2022/11/04 08:54:57;;;;;;;40.33;20.90;;;;;;;10.23;100.00;100504.78;5035659;28;20739;-74
2022/11/04 08:57:22;;;;;;;35.90;20.63;;;;;;;10.32;100.00;100508.09;5035693;28;20032;-74
2022/11/04 08:59:48;;;;;;;42.85;21.30;;;;;;;10.34;100.00;100512.09;5035825;28;20037;-74
2022/11/04 09:02:14;;;;;;;43.53;22.42;;;;;;;10.05;100.00;100510.19;5028866;28;20439;-75
2022/11/04 09:04:40;;;;;;;41.05;24.10;;;;;;;10.29;100.00;100514.44;5042589;28;20048;-74
2022/11/04 09:07:06;;;;;;;43.15;23.25;;;;;;;10.30;100.00;100516.06;5034879;28;20137;-75
2022/11/04 09:09:32;;;;;;;47.47;24.52;;;;;;;10.02;100.00;100510.97;5016268;28;20172;-75
2022/11/04 09:11:58;;;;;;;45.05;26.48;;;;;;;10.21;100.00;100518.34;5023704;28;20052;-75
2022/11/04 09:14:23;;;;;;;47.95;26.83;;;;;;;10.27;100.00;100520.41;5031895;28;20464;-76
2022/11/04 09:16:48;;;;;;;45.17;25.73;;;;;;;9.90;100.00;100526.81;5021682;28;20430;-78
2022/11/04 09:19:14;;;;;;;48.35;27.52;;;;;;;9.89;100.00;100524.41;5040272;28;20163;-75
2022/11/04 09:21:39;;;;;;;54.83;29.33;;;;;;;9.71;100.00;100529.78;5034456;28;20032;-75
2022/11/04 09:24:06;;;;;;;51.88;27.13;;;;;;;9.81;100.00;100531.91;5032373;28;20037;-75
2022/11/04 09:26:32;;;;;;;53.90;26.15;;;;;;;9.94;100.00;100538.84;5033091;28;20357;-75
2022/11/04 09:28:59;;;;;;;54.97;28.25;;;;;;;10.21;100.00;100535.94;5034608;28;20063;-75
2022/11/04 09:31:26;;;;;;;45.53;25.13;;;;;;;10.32;100.00;100539.66;5035886;28;20404;-75
2022/11/04 09:33:53;;;;;;;48.97;27.23;;;;;;;10.40;100.00;100537.75;5042019;28;20025;-75
2022/11/04 09:36:18;;;;;;;47.97;25.27;;;;;;;10.34;100.00;100540.09;5028577;28;20108;-75
2022/11/04 09:38:44;;;;;;;43.65;24.40;;;;;;;10.17;100.00;100540.69;5034137;28;20017;-75
2022/11/04 09:41:26;;;;;;;46.05;25.30;;;;;;;10.21;100.00;100541.53;5033212;28;20099;-75
2022/11/04 09:44:01;;;;;;;43.28;23.60;;;;;;;9.94;100.00;100549.22;5034649;28;20150;-75
2022/11/04 09:46:30;;;;;;;46.72;25.60;;;;;;;10.18;100.00;100556.25;5039043;28;20471;-75
2022/11/04 09:48:56;;;;;;;49.55;24.85;;;;;;;10.23;100.00;100567.13;5023994;28;20541;-75
2022/11/04 09:51:25;;;;;;;47.72;25.15;;;;;;;10.22;100.00;100573.88;5018888;28;20063;-74
2022/11/04 09:54:04;;;;;;;44.60;23.92;;;;;;;10.35;100.00;100569.69;5034037;28;20032;-74
2022/11/04 09:56:41;;;;;;;45.30;24.45;;;;;;;10.29;100.00;100576.81;5031482;28;20926;-75
2022/11/04 09:59:16;;;;;;;43.15;23.48;;;;;;;10.21;100.00;100585.47;5034661;28;20214;-74
2022/11/04 10:01:50;;;;;;;43.38;22.90;;;;;;;10.08;100.00;100593.31;5027068;28;20033;-74
2022/11/04 10:04:34;;;;;;;38.45;20.85;;;;;;;10.19;100.00;100585.84;5016191;28;20074;-74
2022/11/04 10:07:18;;;;;;;40.78;24.35;;;;;;;10.27;100.00;100584.75;5032505;28;20029;-74
2022/11/04 10:10:05;;;;;;;42.60;22.20;;;;;;;10.38;100.00;100588.50;5037117;28;20723;-74
2022/11/04 10:12:51;;;;;;;38.50;23.08;;;;;;;10.20;100.00;100595.84;5025976;28;20053;-74
2022/11/04 10:15:45;;;;;;;36.92;20.75;;;;;;;10.02;100.00;100583.66;5031150;28;20471;-74
2022/11/04 10:18:20;;;;;;;37.38;21.23;;;;;;;10.24;100.00;100591.09;5034928;28;20064;-74
2022/11/04 10:21:05;;;;;;;36.55;21.35;;;;;;;10.26;100.00;100594.31;5028488;28;20419;-74
2022/11/04 10:23:57;;;;;;;36.53;20.50;;;;;;;10.24;100.00;100596.69;5037172;28;20123;-75
2022/11/04 10:26:32;;;;;;;34.28;20.63;;;;;;;10.25;100.00;100598.31;4995669;28;20081;-74
2022/11/04 10:29:03;;;;;;;35.97;20.83;;;;;;;10.36;100.00;100607.66;5033671;28;20485;-75
2022/11/04 10:31:29;;;;;;;30.45;17.30;;;;;;;10.41;100.00;100605.69;5030842;28;20095;-75
2022/11/04 10:34:02;;;;;;;31.30;18.08;;;;;;;10.44;100.00;100605.75;5032512;28;20041;-75
2022/11/04 10:36:29;;;;;;;32.17;18.02;;;;;;;10.32;100.00;100609.59;5032882;28;20057;-74
2022/11/04 10:38:55;;;;;;;30.20;17.85;;;;;;;10.32;100.00;100609.59;5028518;28;20029;-75
2022/11/04 10:41:23;;;;;;;34.08;18.48;;;;;;;10.28;100.00;100614.31;5041990;28;20096;-74
2022/11/04 10:44:27;;;;;;;32.83;18.48;;;;;;;10.37;100.00;100626.06;5031077;28;20132;-75
2022/11/04 10:47:02;;;;;;;32.83;17.67;;;;;;;10.31;100.00;100630.38;4989033;28;20041;-74
2022/11/04 10:49:46;;;;;;;31.77;17.77;;;;;;;10.41;100.00;100639.28;5033005;28;20017;-75
2022/11/04 10:52:11;;;;;;;24.60;15.35;;;;;;;10.58;100.00;100638.66;5034804;28;20043;-75
2022/11/04 10:54:43;;;;;;;31.35;19.40;;;;;;;10.30;100.00;100645.53;5031060;28;20489;-75
2022/11/04 10:57:11;;;;;;;29.98;17.00;;;;;;;10.54;100.00;100649.00;5027658;28;20103;-74
2022/11/04 11:00:01;;;;;;;29.80;18.35;;;;;;;10.58;100.00;100653.47;5026889;28;20035;-74
2022/11/04 11:02:36;;;;;;;29.52;18.88;;;;;;;10.47;100.00;100654.53;5031923;28;20033;-74
2022/11/04 11:05:23;;;;;;;37.13;18.98;;;;;;;10.45;100.00;100645.72;5013371;28;20028;-75
2022/11/04 11:07:56;;;;;;;36.05;20.55;;;;;;;10.40;100.00;100643.28;5013065;28;21082;-75
2022/11/04 11:10:30;;;;;;;30.20;18.35;;;;;;;10.47;100.00;100644.13;5029656;28;20080;-75
2022/11/04 11:13:22;;;;;;;34.20;19.45;;;;;;;10.51;100.00;100639.38;5031005;28;20091;-75
2022/11/04 11:15:48;;;;;;;33.58;20.40;;;;;;;10.60;100.00;100644.66;5031366;28;20033;-75
2022/11/04 11:18:16;;;;;;;36.17;20.13;;;;;;;10.62;100.00;100656.28;5030672;28;20033;-75
2022/11/04 11:20:48;;;;;;;30.25;18.55;;;;;;;10.67;100.00;100658.75;5041615;28;20149;-75
2022/11/04 11:23:32;;;;;;;31.42;17.45;;;;;;;10.56;100.00;100666.22;5031012;28;20481;-75
2022/11/04 11:25:58;;;;;;;29.38;17.60;;;;;;;10.53;100.00;100667.78;5016090;28;20030;-75
2022/11/04 11:28:24;;;;;;;31.50;16.23;;;;;;;10.58;100.00;100678.66;5039514;28;20028;-76
2022/11/04 11:31:07;;;;;;;29.15;16.98;;;;;;;10.95;100.00;100677.03;5038142;28;20041;-75
2022/11/04 11:33:39;;;;;;;28.88;17.88;;;;;;;10.88;100.00;100680.56;5017544;28;20040;-75
2022/11/04 11:36:23;;;;;;;27.67;15.95;;;;;;;10.74;100.00;100686.81;5045050;28;20025;-74
2022/11/04 11:39:15;;;;;;;27.38;15.50;;;;;;;10.67;100.00;100672.75;5036875;28;20463;-74
2022/11/04 11:41:58;;;;;;;28.83;15.68;;;;;;;11.19;100.00;100670.84;5040589;28;20074;-74
2022/11/04 11:44:43;;;;;;;27.63;15.02;;;;;;;11.12;100.00;100673.59;5033632;28;20095;-73
2022/11/04 11:47:37;;;;;;;27.90;16.17;;;;;;;11.04;100.00;100671.91;5033298;28;20056;-74
2022/11/04 11:50:05;;;;;;;25.75;14.98;;;;;;;10.93;100.00;100676.59;5033105;28;20041;-74
2022/11/04 11:52:32;;;;;;;27.67;14.68;;;;;;;10.97;100.00;100681.03;5039225;28;20059;-75
2022/11/04 11:55:11;;;;;;;25.50;15.75;;;;;;;11.12;100.00;100690.38;5016553;28;20123;-74
2022/11/04 11:57:50;;;;;;;26.98;15.27;;;;;;;11.11;100.00;100705.59;5037127;28;20116;-74
2022/11/04 12:00:17;;;;;;;23.40;14.43;;;;;;;11.13;100.00;100708.81;5034142;28;20047;-75
2022/11/04 12:02:51;;;;;;;22.00;12.63;;;;;;;11.08;100.00;100705.56;5027363;28;20431;-75
2022/11/04 12:05:22;;;;;;;21.38;11.35;;;;;;;10.95;100.00;100710.63;5022991;28;20074;-75
2022/11/04 12:07:56;;;;;;;17.42;11.88;;;;;;;10.95;100.00;100703.03;5031071;28;20021;-74
2022/11/04 12:10:29;;;;;;;21.30;12.70;;;;;;;10.99;100.00;100703.88;5037073;28;20032;-75
2022/11/04 12:13:00;;;;;;;24.48;14.18;;;;;;;11.11;100.00;100705.59;5041971;28;20047;-74
2022/11/04 12:15:28;;;;;;;24.15;13.30;;;;;;;11.04;100.00;100710.31;5029794;28;20106;-75
2022/11/04 12:18:19;;;;;;;27.98;15.13;;;;;;;11.03;100.00;100703.91;5022492;28;20025;-76
2022/11/04 12:20:57;;;;;;;25.08;13.57;;;;;;;11.07;100.00;100721.56;5036763;28;20041;-75
2022/11/04 12:23:32;;;;;;;22.98;11.38;;;;;;;11.23;100.00;100715.69;5027130;28;20032;-74
2022/11/04 12:26:23;;;;;;;19.88;13.05;;;;;;;11.19;100.00;100717.66;5035268;28;20082;-74
2022/11/04 12:29:18;;;;;;;25.23;13.45;;;;;;;11.25;100.00;100715.31;5034684;28;20031;-74
2022/11/04 12:32:10;;;;;;;26.65;14.68;;;;;;;11.24;100.00;100708.91;5026094;28;20028;-74
2022/11/04 12:34:39;;;;;;;20.08;12.65;;;;;;;11.26;100.00;100708.50;5029063;28;20037;-75
2022/11/04 12:37:31;;;;;;;22.30;13.82;;;;;;;11.24;100.00;100713.72;5030417;28;20021;-74
2022/11/04 12:40:11;;;;;;;20.20;12.48;;;;;;;11.31;100.00;100724.97;5029469;28;20037;-74
2022/11/04 12:42:58;;;;;;;21.80;13.93;;;;;;;11.33;100.00;100728.19;5027527;28;20083;-74
2022/11/04 12:45:59;;;;;;;22.83;13.13;;;;;;;11.33;100.00;100737.41;5034576;28;20041;-76
2022/11/04 12:48:46;;;;;;;25.00;13.43;;;;;;;11.42;100.00;100731.47;5013492;28;20037;-74
2022/11/04 12:51:18;;;;;;;19.80;11.55;;;;;;;11.48;100.00;100727.13;5036056;28;20564;-74
2022/11/04 12:54:13;;;;;;;18.48;10.98;;;;;;;11.55;100.00;100735.59;5033852;28;20476;-74
2022/11/04 12:56:39;;;;;;;21.73;10.07;;;;;;;11.54;100.00;100733.97;5022557;28;20071;-74
2022/11/04 12:59:20;;;;;;;17.10;9.60;;;;;;;11.54;100.00;100727.56;5032889;28;20028;-74
2022/11/04 13:02:21;;;;;;;15.77;8.57;;;;;;;11.51;100.00;100734.78;5031248;28;20108;-73
2022/11/04 13:04:58;;;;;;;9.27;5.28;;;;;;;11.54;100.00;100738.78;4995679;28;20048;-74
2022/11/04 13:07:32;;;;;;;11.80;5.25;;;;;;;11.57;100.00;100744.44;5032761;28;20032;-73
2022/11/04 13:10:17;;;;;;;7.45;3.25;;;;;;;11.67;100.00;100739.28;5036525;28;20112;-73
2022/11/04 13:12:47;;;;;;;7.07;2.97;;;;;;;11.70;100.00;100747.75;5032633;28;20504;-73
2022/11/04 13:15:21;;;;;;;8.52;4.15;;;;;;;11.66;100.00;100746.91;5010973;28;20033;-74
2022/11/04 13:17:50;;;;;;;7.22;3.53;;;;;;;11.74;100.00;100742.13;5029789;28;20507;-74
2022/11/04 13:20:39;;;;;;;9.05;2.67;;;;;;;11.80;100.00;100752.63;5036032;28;20024;-74
2022/11/04 13:23:12;;;;;;;6.82;3.28;;;;;;;11.71;100.00;100737.31;5020222;28;20041;-73
2022/11/04 13:25:43;;;;;;;12.35;2.92;;;;;;;11.74;100.00;100742.13;5016212;28;20028;-74
2022/11/04 13:28:14;;;;;;;5.70;2.60;;;;;;;11.69;98.89;100750.91;5030135;28;20029;-73
2022/11/04 13:31:05;;;;;;;6.90;3.10;;;;;;;11.69;100.00;100762.13;5024599;28;20044;-74
2022/11/04 13:33:55;;;;;;;4.07;2.35;;;;;;;11.68;99.66;100766.94;5025896;28;20025;-74
2022/11/04 13:36:56;;;;;;;5.43;2.85;;;;;;;11.67;98.88;100770.13;5031575;28;20111;-74
2022/11/04 13:39:23;;;;;;;7.15;2.67;;;;;;;11.67;97.72;100770.13;5016345;28;20036;-74
2022/11/04 13:42:08;;;;;;;6.35;2.50;;;;;;;11.66;98.98;100760.09;5035092;28;20068;-74
2022/11/04 13:44:44;;;;;;;6.30;2.67;;;;;;;11.60;100.00;100766.06;5026402;28;20469;-74
2022/11/04 13:47:23;;;;;;;6.78;2.88;;;;;;;11.59;100.00;100767.28;5032815;28;20029;-74
2022/11/04 13:49:57;;;;;;;6.95;2.47;;;;;;;11.60;99.75;100765.28;5019116;28;20033;-74
2022/11/04 13:52:32;;;;;;;5.18;2.03;;;;;;;11.57;100.00;100777.25;5046909;28;20044;-74
2022/11/04 13:55:04;;;;;;;8.27;3.60;;;;;;;11.64;100.00;100779.31;5033572;28;20028;-74
2022/11/04 13:57:50;;;;;;;3.97;1.80;;;;;;;11.59;99.49;100786.06;5014636;28;20028;-75
2022/11/04 14:00:15;;;;;;;4.28;2.10;;;;;;;11.64;100.00;100787.72;5006896;28;20095;-74
2022/11/04 14:02:58;;;;;;;4.38;2.25;;;;;;;11.70;100.00;100784.19;5026325;28;20032;-75
2022/11/04 14:05:27;;;;;;;4.82;2.33;;;;;;;11.73;100.00;100779.78;5025917;28;20027;-74
2022/11/04 14:08:01;;;;;;;7.18;3.67;;;;;;;11.72;100.00;100780.97;5026168;28;20041;-74
2022/11/04 14:10:48;;;;;;;8.10;2.55;;;;;;;11.59;100.00;100791.69;5015662;28;20079;-75
2022/11/04 14:13:26;;;;;;;4.82;2.38;;;;;;;11.53;100.00;100801.63;5029124;28;20517;-74
2022/11/04 14:16:23;;;;;;;7.97;2.45;;;;;;;11.54;100.00;100804.06;5019660;28;20488;-74
2022/11/04 14:18:50;;;;;;;5.97;1.95;;;;;;;11.57;100.00;100811.72;5029465;28;20446;-75
2022/11/04 14:21:28;;;;;;;6.05;2.63;;;;;;;11.55;100.00;100821.69;5028855;28;20340;-75
2022/11/04 14:24:01;;;;;;;8.18;2.60;;;;;;;11.48;99.18;100814.00;5028423;28;20035;-74
2022/11/04 14:26:44;;;;;;;6.88;2.38;;;;;;;11.50;98.37;100820.03;5031328;28;20025;-74
2022/11/04 14:29:22;;;;;;;;;;;;;;;11.50;99.55;100822.84;5032659;28;20519;-75
2022/11/04 14:31:53;;;;;;;6.18;2.05;;;;;;;11.46;97.79;100827.59;5033283;28;20375;-74
2022/11/04 14:34:28;;;;;;;7.83;2.00;;;;;;;11.50;98.28;100830.44;5026881;28;20103;-75
2022/11/04 14:36:59;;;;;;;7.38;1.55;;;;;;;11.34;95.93;100841.88;5020617;28;20022;-74
2022/11/04 14:39:33;;;;;;;5.18;2.45;;;;;;;11.45;98.89;100842.81;5026226;28;20068;-75
2022/11/04 14:42:00;;;;;;;5.25;1.60;;;;;;;11.45;98.03;100847.59;5028331;28;20496;-74
2022/11/04 14:44:31;;;;;;;5.68;1.65;;;;;;;11.47;98.26;100856.44;5016171;28;20036;-74
2022/11/04 14:47:21;;;;;;;7.50;1.50;;;;;;;11.36;96.54;100847.91;5029653;28;20604;-74
2022/11/04 14:49:58;;;;;;;4.60;1.67;;;;;;;11.50;99.45;100855.69;5030010;28;20053;-74
2022/11/04 14:52:32;;;;;;;3.95;1.58;;;;;;;11.41;97.31;100858.00;5014361;28;20029;-74
2022/11/04 14:55:05;;;;;;;5.20;1.40;;;;;;;11.55;98.73;100858.94;5031630;28;21675;-74
2022/11/04 14:57:36;;;;;;;4.82;1.50;;;;;;;11.45;98.99;100865.25;5031174;28;20475;-74
2022/11/04 15:00:36;;;;;;;8.27;1.60;;;;;;;11.51;99.41;100869.31;5033113;28;20540;-74
2022/11/04 15:03:22;;;;;;;3.30;1.95;;;;;;;11.55;100.00;100870.16;5026095;28;20753;-75
2022/11/04 15:05:53;;;;;;;4.05;1.50;;;;;;;11.51;98.37;100874.94;5020265;28;20029;-74
2022/11/04 15:08:26;;;;;;;3.85;1.60;;;;;;;11.39;97.68;100878.00;5042108;28;20041;-74
2022/11/04 15:12:49;;;;;;;6.57;1.95;;;;;;;11.44;98.04;100896.44;5038734;28;20036;-74
2022/11/04 15:14:22;;;;;;;4.45;1.70;;;;;;;11.47;99.79;100893.69;5034809;28;20725;-75
2022/11/04 15:16:53;;;;;;;9.82;1.92;;;;;;;11.39;100.00;100895.59;5024980;28;20979;-74
2022/11/04 15:19:28;;;;;;;5.47;1.67;;;;;;;11.35;100.00;100900.38;5042625;28;20026;-74
2022/11/04 15:21:54;;;;;;;6.60;1.52;;;;;;;11.29;99.37;100901.88;5034698;28;20534;-74
2022/11/04 15:24:20;;;;;;;4.65;1.50;;;;;;;11.27;99.98;100909.06;5038167;28;20025;-74
2022/11/04 15:26:53;;;;;;;8.50;3.30;;;;;;;11.35;99.81;100908.78;5014951;28;20040;-74
2022/11/04 15:29:22;;;;;;;4.38;1.60;;;;;;;11.28;99.36;100913.47;5039117;28;20094;-75
2022/11/04 15:31:54;;;;;;;5.88;1.45;;;;;;;11.25;99.67;100911.44;5024511;28;20039;-74
2022/11/04 15:34:20;;;;;;;6.43;1.58;;;;;;;11.28;100.00;100913.47;5019386;28;20037;-74
2022/11/04 15:36:47;;;;;;;9.23;2.38;;;;;;;11.34;99.72;100917.56;5039957;28;20035;-74
2022/11/04 15:39:21;;;;;;;3.50;1.25;;;;;;;11.27;99.80;100923.09;5032346;28;20037;-74
2022/11/04 15:44:35;;;;;;;6.40;1.60;;;;;;;11.34;100.00;100929.59;5029923;28;20144;-75
2022/11/04 15:47:22;;;;;;;9.30;1.50;;;;;;;11.37;100.00;100931.63;5016401;28;20026;-74
2022/11/04 15:49:50;;;;;;;7.78;2.20;;;;;;;11.36;100.00;100940.41;5035618;28;20564;-75
2022/11/04 15:52:16;;;;;;;5.95;1.30;;;;;;;11.31;100.00;100947.16;5036166;28;20030;-75
2022/11/04 15:54:47;;;;;;;10.10;1.75;;;;;;;11.15;100.00;100947.38;5028769;28;20181;-74
2022/11/04 15:57:18;;;;;;;9.70;2.25;;;;;;;11.22;100.00;100943.03;5041873;28;20464;-74
2022/11/04 16:00:12;;;;;;;8.18;2.13;;;;;;;11.30;100.00;100947.53;5039235;28;20056;-74
2022/11/04 16:02:44;;;;;;;5.63;1.70;;;;;;;11.24;100.00;100938.66;5036104;28;20350;-75
2022/11/04 16:05:09;;;;;;;3.78;1.35;;;;;;;11.24;100.00;100946.28;5022232;28;20060;-75
2022/11/04 16:07:40;;;;;;;3.13;1.65;;;;;;;11.13;100.00;100944.13;5027486;28;20162;-74
2022/11/04 16:10:24;;;;;;;6.13;1.77;;;;;;;11.04;100.00;100940.78;5036148;28;20404;-74
2022/11/04 16:13:11;;;;;;;5.95;2.30;;;;;;;10.98;100.00;100937.53;4994719;28;1054723;-74
2022/11/04 16:15:49;;;;;;;4.45;2.08;;;;;;;11.06;100.00;100948.81;5024196;28;20045;-74
2022/11/04 16:18:20;;;;;;;6.70;2.47;;;;;;;11.03;100.00;100944.78;5039541;28;20067;-74
2022/11/04 16:20:47;;;;;;;5.97;2.47;;;;;;;11.06;100.00;100955.22;5033912;28;20069;-74
2022/11/04 16:23:17;;;;;;;7.60;2.20;;;;;;;10.95;100.00;100949.47;5028624;28;20048;-74
2022/11/04 16:25:42;;;;;;;5.85;1.92;;;;;;;11.05;100.00;100959.22;5037894;28;20021;-74
2022/11/04 16:28:19;;;;;;;6.18;2.85;;;;;;;10.99;100.00;100955.16;5039882;28;20037;-74
2022/11/04 16:30:59;;;;;;;5.50;2.03;;;;;;;10.93;100.00;100968.66;5039849;28;21423;-74
2022/11/04 16:33:24;;;;;;;6.47;2.15;;;;;;;10.87;100.00;100972.16;5035814;28;20033;-74
2022/11/04 16:35:50;;;;;;;4.57;2.95;;;;;;;11.01;100.00;100972.38;5036181;28;20040;-74
2022/11/04 16:38:15;;;;;;;9.05;2.75;;;;;;;11.04;100.00;100979.22;5043799;28;20033;-74
2022/11/04 16:40:43;;;;;;;3.65;2.50;;;;;;;10.99;100.00;100985.94;5033686;28;20060;-74
2022/11/04 16:43:09;;;;;;;9.68;3.03;;;;;;;10.93;100.00;100996.66;5035414;28;20508;-74
2022/11/04 16:45:37;;;;;;;11.00;3.50;;;;;;;10.86;100.00;100998.56;5030299;28;20102;-75
2022/11/04 16:48:03;;;;;;;5.95;2.45;;;;;;;10.89;100.00;101006.19;5024734;28;20049;-75
2022/11/04 16:50:30;;;;;;;6.93;2.75;;;;;;;10.86;100.00;101006.97;5021378;28;20055;-75
2022/11/04 16:52:56;;;;;;;9.18;3.15;;;;;;;10.67;100.00;101011.47;5021632;28;20040;-75
2022/11/04 16:55:23;;;;;;;5.97;3.15;;;;;;;10.69;100.00;101009.09;5035921;28;20119;-75
2022/11/04 16:57:56;;;;;;;6.35;3.53;;;;;;;10.54;100.00;101013.66;5030584;28;20037;-74
2022/11/04 17:00:24;;;;;;;7.72;3.50;;;;;;;10.62;100.00;101016.56;5035689;28;20029;-74
2022/11/04 17:02:50;;;;;;;8.20;3.35;;;;;;;10.66;100.00;101023.84;5030090;28;20086;-74
2022/11/04 17:05:16;;;;;;;5.10;3.20;;;;;;;10.64;100.00;101031.00;5025755;28;20032;-74
2022/11/04 17:07:42;;;;;;;5.63;3.10;;;;;;;10.72;100.00;101033.53;5031263;28;20112;-74
2022/11/04 17:10:18;;;;;;;8.98;3.88;;;;;;;10.67;100.00;101028.28;5030235;28;20041;-74
2022/11/04 17:12:44;;;;;;;12.73;4.75;;;;;;;10.68;100.00;101035.47;5027268;28;20404;-75
2022/11/04 17:15:11;;;;;;;8.18;4.05;;;;;;;10.53;100.00;101034.44;5024047;28;20480;-75
2022/11/04 17:17:36;;;;;;;7.07;3.45;;;;;;;10.53;100.00;101036.41;5031385;28;20052;-74
2022/11/04 17:20:03;;;;;;;6.90;3.50;;;;;;;10.60;100.00;101038.53;5037172;28;20253;-74
2022/11/04 17:22:31;;;;;;;7.53;4.15;;;;;;;10.67;100.00;101038.66;5036629;28;20043;-75
2022/11/04 17:24:56;;;;;;;8.95;3.13;;;;;;;10.65;100.00;101043.84;5029385;28;20152;-75
2022/11/04 17:27:21;;;;;;;5.15;3.30;;;;;;;10.47;100.00;101054.72;5034751;28;20045;-76
2022/11/04 17:29:47;;;;;;;7.00;3.20;;;;;;;10.47;100.00;101051.91;5009910;28;20057;-75
2022/11/04 17:32:12;;;;;;;10.30;3.30;;;;;;;10.41;100.00;101053.41;5028262;28;20029;-74
2022/11/04 17:34:39;;;;;;;6.43;3.30;;;;;;;10.49;100.00;101058.75;5028417;28;20082;-74
2022/11/04 17:37:05;;;;;;;5.75;2.65;;;;;;;10.60;100.00;101058.94;5031872;28;20036;-74
2022/11/04 17:39:30;;;;;;;6.45;2.45;;;;;;;10.61;100.00;101063.34;5028505;28;20040;-74
2022/11/04 17:44:40;;;;;;;5.20;3.33;;;;;;;10.46;100.00;101072.69;5034481;28;20068;-74
2022/11/04 17:47:05;;;;;;;5.28;3.15;;;;;;;10.41;100.00;101081.38;5010456;28;20463;-75